Data for 12/05/2010

Time Sea-Level Adjusted Pressure Absolute Pressure Temperature Relative Humidity Dew Point   
(mb) (inHg) (mb) (inHg) (C) (F) (%) (C) (F)
00:05 1026 30.3 855 25.25 -12.6 9.4 93 -13.4 7.9
00:10 1026 30.3 855 25.25 -12.4 9.7 94 -13.2 8.2
00:15 1026 30.3 855 25.25 -12.2 10.1 93 -13 8.5
00:20 1026 30.3 855 25.25 -12.2 10.1 91 -13.3 8
00:25 1026 30.3 855 25.25 -12.3 9.9 92 -13.3 8
00:30 1026 30.3 855 25.25 -12.3 9.9 91 -13.4 7.8
00:35 1026 30.3 855 25.25 -12.6 9.3 88 -14.2 6.5
00:40 1026 30.3 855 25.25 -13.1 8.4 91 -14.2 6.4
00:45 1026 30.3 855 25.25 -12.9 8.7 92 -14 6.9
00:50 1026 30.3 855 25.25 -13.3 8 93 -14.2 6.5
00:55 1026 30.3 855 25.25 -12.8 8.9 95 -13.5 7.7
01:00 1026 30.3 855 25.25 -12.6 9.3 94 -13.5 7.8
01:05 1026 30.3 855 25.25 -12.5 9.5 94 -13.3 8.1
01:10 1026 30.3 855 25.25 -12.2 10 94 -13 8.6
01:15 1026 30.3 855 25.25 -11.9 10.6 93 -12.8 8.9
01:20 1026 30.3 855 25.25 -12.4 9.7 92 -13.4 7.8
01:25 1025 30.27 855 25.25 -12.5 9.5 93 -13.3 8
01:30 1025 30.27 855 25.25 -12.3 10 94 -13 8.5
01:35 1025 30.27 855 25.25 -12 10.3 92 -13 8.5
01:40 1025 30.27 854 25.22 -12.3 9.9 92 -13.4 8
01:45 1025 30.27 854 25.22 -12.5 9.6 92 -13.5 7.7
01:50 1025 30.27 854 25.22 -12.5 9.6 93 -13.3 8
01:55 1025 30.27 854 25.22 -12.2 10 92 -13.3 8.1
02:00 1025 30.27 854 25.22 -12.1 10.3 93 -13 8.6
02:05 1025 30.27 854 25.22 -11.8 10.7 92 -12.9 8.7
02:10 1025 30.27 854 25.22 -11.7 10.9 91 -12.9 8.8
02:15 1025 30.27 854 25.22 -11.9 10.6 91 -13 8.6
02:20 1025 30.27 855 25.25 -11.7 10.9 92 -12.7 9.1
02:25 1025 30.27 855 25.25 -11.3 11.6 93 -12.3 9.9
02:30 1025 30.27 855 25.25 -10.8 12.6 91 -11.9 10.5
02:35 1026 30.3 855 25.25 -10.4 13.2 90 -11.7 10.9
02:40 1025 30.27 855 25.25 -10.3 13.4 90 -11.7 10.9
02:45 1026 30.3 855 25.25 -10.4 13.2 89 -11.9 10.6
02:50 1026 30.3 855 25.25 -11.2 11.8 84 -13.4 8
02:55 1026 30.3 855 25.25 -12.6 9.4 88 -14.2 6.4
03:00 1026 30.3 855 25.25 -13.2 8.2 89 -14.6 5.7
03:05 1026 30.3 855 25.25 -13.4 7.8 90 -14.7 5.5
03:10 1026 30.3 855 25.25 -13.5 7.7 91 -14.7 5.5
03:15 1025 30.27 855 25.25 -13.4 7.8 92 -14.5 5.8
03:20 1025 30.27 855 25.25 -13.4 8 91 -14.6 5.7
03:25 1025 30.27 855 25.25 -13.4 7.9 91 -14.5 5.9
03:30 1025 30.27 855 25.25 -13.5 7.8 91 -14.6 5.7
03:35 1025 30.27 855 25.25 -13.6 7.6 92 -14.5 5.8
03:40 1025 30.27 855 25.25 -13.4 7.8 93 -14.3 6.2
03:45 1025 30.27 855 25.25 -13.3 8.1 93 -14.2 6.5
03:50 1025 30.27 855 25.25 -13 8.5 92 -14 6.7
03:55 1025 30.27 855 25.25 -13 8.6 91 -14.3 6.3
04:00 1025 30.27 855 25.25 -13.2 8.2 91 -14.4 6
04:05 1025 30.27 855 25.25 -13.3 8 91 -14.5 5.9
04:10 1025 30.27 855 25.25 -13.6 7.6 90 -14.9 5.3
04:15 1025 30.27 855 25.25 -13.8 7.3 92 -14.8 5.3
04:20 1025 30.27 855 25.25 -13.7 7.4 93 -14.6 5.8
04:25 1025 30.27 855 25.25 -13.6 7.5 93 -14.5 5.9
04:30 1025 30.27 854 25.22 -13.8 7.2 91 -15 4.9
04:35 1025 30.27 854 25.22 -14 6.8 91 -15.1 4.8
04:40 1025 30.27 855 25.25 -14 6.7 94 -14.8 5.4
04:45 1025 30.27 855 25.25 -13.1 8.5 95 -13.7 7.3
04:50 1025 30.27 855 25.25 -12.5 9.5 95 -13.2 8.2
04:55 1025 30.27 855 25.25 -12.2 10.1 93 -13.1 8.4
05:00 1025 30.27 855 25.25 -12.5 9.5 92 -13.5 7.7
05:05 1025 30.27 855 25.25 -12.6 9.2 91 -13.9 7.1
05:10 1025 30.27 855 25.25 -13 8.6 93 -14 6.9
05:15 1025 30.27 855 25.25 -13.1 8.5 91 -14.3 6.3
05:20 1025 30.27 855 25.25 -12.9 8.7 94 -13.6 7.5
05:25 1025 30.27 855 25.25 -11.8 10.8 93 -12.7 9.1
05:30 1025 30.27 855 25.25 -12 10.4 90 -13.3 8
05:35 1025 30.27 855 25.25 -12.4 9.7 91 -13.5 7.6
05:40 1025 30.27 855 25.25 -12.4 9.7 91 -13.5 7.6
05:45 1025 30.27 855 25.25 -12.1 10.1 93 -13.1 8.4
05:50 1025 30.27 855 25.25 -11.8 10.7 91 -13 8.6
05:55 1025 30.27 855 25.25 -12 10.3 92 -13.1 8.4
06:00 1025 30.27 855 25.25 -12.1 10.3 92 -13.1 8.5
06:05 1026 30.3 855 25.25 -11.9 10.6 92 -12.9 8.7
06:10 1026 30.3 855 25.25 -11.7 10.9 93 -12.7 9.2
06:15 1026 30.3 855 25.25 -11.5 11.3 93 -12.5 9.5
06:20 1025 30.27 855 25.25 -11.3 11.7 92 -12.3 9.9
06:25 1025 30.27 855 25.25 -11.5 11.4 89 -12.9 8.8
06:30 1025 30.27 855 25.25 -11.6 11.2 93 -12.5 9.4
06:35 1025 30.27 855 25.25 -11.2 11.9 92 -12.2 10
06:40 1026 30.3 855 25.25 -11.5 11.4 89 -12.9 8.9
06:45 1026 30.3 855 25.25 -12.1 10.3 91 -13.3 8
06:50 1026 30.3 855 25.25 -12 10.4 92 -13 8.6
06:55 1026 30.3 855 25.25 -11.6 11.1 92 -12.7 9.2
07:00 1026 30.3 855 25.25 -11.6 11 92 -12.7 9.1
07:05 1026 30.3 855 25.25 -11.5 11.4 92 -12.5 9.5
07:10 1026 30.3 855 25.25 -11.4 11.6 92 -12.4 9.6
07:15 1026 30.3 855 25.25 -11.3 11.7 92 -12.3 9.9
07:20 1026 30.3 855 25.25 -11.2 11.9 92 -12.2 10
07:25 1026 30.3 855 25.25 -11.3 11.7 91 -12.5 9.6
07:30 1026 30.3 855 25.25 -11.7 11 90 -12.9 8.7
07:35 1026 30.3 855 25.25 -12.1 10.3 90 -13.4 7.8
07:40 1026 30.3 855 25.25 -12.7 9.1 88 -14.3 6.3
07:45 1026 30.3 855 25.25 -13.1 8.5 92 -14.2 6.5
07:50 1026 30.3 855 25.25 -12.8 9 92 -13.8 7.1
07:55 1026 30.3 855 25.25 -12.5 9.5 92 -13.6 7.6
08:00 1026 30.3 855 25.25 -12.4 9.8 91 -13.5 7.7
08:05 1026 30.3 855 25.25 -12.4 9.7 91 -13.5 7.7
08:10 1026 30.3 855 25.25 -12.1 10.3 92 -13.1 8.5
08:15 1026 30.3 855 25.25 -11.5 11.3 92 -12.5 9.5
08:20 1026 30.3 856 25.28 -11.1 12 91 -12.2 10
08:25 1026 30.3 856 25.28 -10.9 12.3 90 -12.2 10
08:30 1026 30.3 856 25.28 -10.9 12.4 90 -12.2 10
08:35 1026 30.3 856 25.28 -10.7 12.7 90 -12.1 10.2
08:40 1027 30.33 856 25.28 -10.8 12.6 88 -12.4 9.8
08:45 1027 30.33 856 25.28 -10.9 12.4 90 -12.2 10.1
08:50 1027 30.33 856 25.28 -10.5 13.1 88 -12.1 10.2
08:55 1027 30.33 856 25.28 -11 12.2 89 -12.5 9.6
09:00 1027 30.33 856 25.28 -10.9 12.3 90 -12.2 10
09:05 1027 30.33 856 25.28 -10.2 13.6 90 -11.6 11.1
09:10 1027 30.33 856 25.28 -9.8 14.3 87 -11.7 11
09:15 1027 30.33 856 25.28 -9.8 14.4 86 -11.6 11.1
09:20 1027 30.33 856 25.28 -9.6 14.8 88 -11.3 11.7
09:25 1027 30.33 856 25.28 -9.1 15.5 86 -11.1 12
09:30 1027 30.33 856 25.28 -8.8 16.2 85 -10.8 12.5
09:35 1027 30.33 856 25.28 -8.4 17 85 -10.4 13.2
09:40 1027 30.33 856 25.28 -7.8 18 83 -10.1 13.8
09:45 1027 30.33 856 25.28 -7.6 18.4 82 -10.1 13.7
09:50 1027 30.33 856 25.28 -7.3 18.9 79 -10.4 13.3
09:55 1027 30.33 856 25.28 -7.4 18.7 78 -10.7 12.8
10:00 1027 30.33 856 25.28 -7.7 18.2 78 -10.8 12.5
10:05 1027 30.33 856 25.28 -7.5 18.5 77 -10.8 12.6
10:10 1027 30.33 856 25.28 -6.9 19.7 75 -10.6 13
10:15 1027 30.33 856 25.28 -7 19.3 77 -10.4 13.3
10:20 1027 30.33 856 25.28 -7.1 19.3 78 -10.2 13.6
10:25 1027 30.33 856 25.28 -6.5 20.3 72 -10.8 12.6
10:30 1027 30.33 856 25.28 -6.5 20.3 73 -10.5 13.1
10:35 1027 30.33 856 25.28 -6.9 19.6 75 -10.7 12.7
10:40 1027 30.33 856 25.28 -6.9 19.6 75 -10.5 13.1
10:45 1027 30.33 856 25.28 -6.4 20.5 72 -10.6 12.9
10:50 1027 30.33 856 25.28 -5.9 21.3 71 -10.3 13.4
10:55 1027 30.33 856 25.28 -5.6 21.9 71 -10.1 13.9
11:00 1027 30.33 856 25.28 -5.9 21.3 73 -10.1 13.8
11:05 1027 30.33 856 25.28 -6.3 20.7 72 -10.5 13.2
11:10 1027 30.33 856 25.28 -6.2 20.9 73 -10.2 13.6
11:15 1027 30.33 856 25.28 -5.5 22 69 -10.4 13.2
11:20 1027 30.33 856 25.28 -5.5 22.1 70 -10.2 13.6
11:25 1027 30.33 856 25.28 -5.5 22.1 71 -10 14
11:30 1027 30.33 856 25.28 -5.5 22.2 70 -10.1 13.9
11:35 1027 30.33 856 25.28 -5.5 22.1 69 -10.3 13.5
11:40 1027 30.33 856 25.28 -5.7 21.7 71 -10.1 13.8
11:45 1027 30.33 856 25.28 -5.5 22.1 68 -10.5 13.1
11:50 1027 30.33 856 25.28 -4.8 23.4 67 -10.1 13.9
11:55 1026 30.3 856 25.28 -4.8 23.3 66 -10.2 13.7
12:00 1026 30.3 856 25.28 -5.3 22.5 69 -10 13.9
12:05 1026 30.3 856 25.28 -4.9 23.2 68 -10 14
12:10 1026 30.3 856 25.28 -4.4 24.2 65 -9.9 14.2
12:15 1026 30.3 856 25.28 -4.1 24.6 65 -9.7 14.6
12:20 1026 30.3 856 25.28 -4.6 23.7 69 -9.5 14.8
12:25 1026 30.3 856 25.28 -4.6 23.7 67 -9.8 14.4
12:30 1026 30.3 856 25.28 -4.1 24.6 66 -9.6 14.8
12:35 1026 30.3 856 25.28 -4.2 24.4 65 -9.8 14.4
12:40 1026 30.3 856 25.28 -4.5 24 66 -9.8 14.3
12:45 1026 30.3 855 25.25 -4.3 24.3 65 -9.9 14.2
12:50 1026 30.3 855 25.25 -4.1 24.5 64 -9.9 14.1
12:55 1026 30.3 855 25.25 -4.1 24.5 64 -10 14
13:00 1026 30.3 855 25.25 -3.9 25 64 -9.8 14.4
13:05 1026 30.3 855 25.25 -4 24.9 66 -9.4 15
13:10 1026 30.3 855 25.25 -4 24.8 65 -9.7 14.6
13:15 1026 30.3 855 25.25 -3.7 25.4 65 -9.4 15.1
13:20 1026 30.3 855 25.25 -3.6 25.5 64 -9.5 15
13:25 1026 30.3 855 25.25 -3.8 25.1 63 -9.8 14.3
13:30 1026 30.3 855 25.25 -3.6 25.4 61 -10 14
13:35 1026 30.3 855 25.25 -3.6 25.4 63 -9.7 14.5
13:40 1026 30.3 855 25.25 -3.5 25.7 62 -9.7 14.5
13:45 1026 30.3 855 25.25 -3.7 25.3 65 -9.3 15.2
13:50 1026 30.3 855 25.25 -4.3 24.3 67 -9.5 14.9
13:55 1026 30.3 855 25.25 -4.4 24.1 67 -9.7 14.6
14:00 1026 30.3 855 25.25 -4 24.9 65 -9.7 14.6
14:05 1026 30.3 855 25.25 -3.5 25.7 63 -9.6 14.7
14:10 1026 30.3 855 25.25 -3.3 26.1 63 -9.4 15.1
14:15 1026 30.3 855 25.25 -3.5 25.7 63 -9.5 14.8
14:20 1026 30.3 855 25.25 -3.5 25.6 61 -9.9 14.1
14:25 1026 30.3 855 25.25 -3.2 26.2 60 -9.9 14.2
14:30 1026 30.3 855 25.25 -2.9 26.8 58 -10.1 13.8
14:35 1026 30.3 855 25.25 -3.4 25.9 62 -9.7 14.5
14:40 1026 30.3 855 25.25 -3.7 25.4 61 -10 13.9
14:45 1026 30.3 855 25.25 -3.5 25.7 62 -9.7 14.5
14:50 1026 30.3 855 25.25 -3.6 25.5 63 -9.6 14.8
14:55 1026 30.3 855 25.25 -3.7 25.4 64 -9.6 14.8
15:00 1026 30.3 855 25.25 -3.8 25.2 64 -9.7 14.6
15:05 1026 30.3 855 25.25 -4 24.8 65 -9.6 14.7
15:10 1026 30.3 855 25.25 -4.2 24.5 65 -9.7 14.5
15:15 1026 30.3 855 25.25 -3.9 25.1 64 -9.6 14.7
15:20 1026 30.3 855 25.25 -3.9 25 65 -9.4 15
15:25 1026 30.3 855 25.25 -4 24.9 65 -9.5 14.9
15:30 1026 30.3 855 25.25 -4.4 24.1 67 -9.6 14.7
15:35 1026 30.3 855 25.25 -4.4 24.1 67 -9.6 14.7
15:40 1026 30.3 855 25.25 -4.2 24.5 66 -9.6 14.7
15:45 1026 30.3 855 25.25 -4.3 24.2 68 -9.4 15.1
15:50 1026 30.3 855 25.25 -5.3 22.5 72 -9.6 14.8
15:55 1026 30.3 855 25.25 -5.5 22.2 72 -9.7 14.5
16:00 1026 30.3 855 25.25 -5.4 22.2 70 -10 14
16:05 1026 30.3 855 25.25 -5.2 22.7 70 -9.8 14.4
16:10 1026 30.3 855 25.25 -5.3 22.4 72 -9.7 14.6
16:15 1026 30.3 855 25.25 -5.6 21.9 73 -9.7 14.5
16:20 1026 30.3 855 25.25 -6.1 21 75 -9.8 14.3
16:25 1026 30.3 855 25.25 -6.6 20.2 76 -10.1 13.9
16:30 1026 30.3 855 25.25 -6.7 19.9 76 -10.2 13.6
16:35 1026 30.3 855 25.25 -7.1 19.2 79 -10.2 13.6
16:40 1026 30.3 855 25.25 -7.3 18.9 79 -10.2 13.6
16:45 1026 30.3 855 25.25 -7.4 18.6 80 -10.3 13.4
16:50 1026 30.3 855 25.25 -7.5 18.5 80 -10.3 13.4
16:55 1026 30.3 855 25.25 -7.4 18.6 80 -10.2 13.6
17:00 1026 30.3 855 25.25 -7.1 19.2 79 -10.1 13.8
17:05 1026 30.3 855 25.25 -7.1 19.2 80 -10 13.9
17:10 1026 30.3 855 25.25 -7.1 19.1 79 -10.1 13.8
17:15 1026 30.3 855 25.25 -7.4 18.7 81 -10.2 13.7
17:20 1026 30.3 855 25.25 -7.6 18.3 82 -10.2 13.6
17:25 1026 30.3 855 25.25 -7.6 18.3 82 -10.2 13.6
17:30 1026 30.3 855 25.25 -7.7 18.2 81 -10.4 13.3
17:35 1026 30.3 855 25.25 -8 17.7 81 -10.7 12.8
17:40 1026 30.3 855 25.25 -8.6 16.6 84 -10.8 12.6
17:45 1026 30.3 855 25.25 -8.6 16.4 84 -10.8 12.5
17:50 1026 30.3 855 25.25 -8.7 16.3 85 -10.8 12.6
17:55 1026 30.3 855 25.25 -8.7 16.3 85 -10.8 12.5
18:00 1026 30.3 855 25.25 -8.8 16.2 85 -10.9 12.4
18:05 1026 30.3 855 25.25 -8.9 15.9 85 -11 12.1
18:10 1026 30.3 855 25.25 -9.2 15.4 87 -11 12.1
18:15 1026 30.3 855 25.25 -9.5 15 87 -11.2 11.9
18:20 1026 30.3 855 25.25 -9.6 14.7 88 -11.3 11.6
18:25 1026 30.3 855 25.25 -9.7 14.6 88 -11.3 11.6
18:30 1026 30.3 855 25.25 -9.7 14.5 89 -11.3 11.7
18:35 1026 30.3 855 25.25 -9.6 14.8 89 -11.1 12.1
18:40 1026 30.3 855 25.25 -9.5 15 88 -11.1 12
18:45 1026 30.3 855 25.25 -9.6 14.8 87 -11.3 11.6
18:50 1026 30.3 855 25.25 -9.7 14.5 90 -11 12.2
18:55 1026 30.3 855 25.25 -9.4 15.2 89 -10.8 12.6
19:00 1026 30.3 855 25.25 -9.2 15.5 88 -10.8 12.5
19:05 1026 30.3 855 25.25 -9.5 14.8 88 -11.1 12
19:10 1026 30.3 855 25.25 -9.6 14.8 90 -11 12.2
19:15 1026 30.3 855 25.25 -9.5 15 89 -11 12.1
19:20 1026 30.3 855 25.25 -9.6 14.8 89 -11.1 12.1
19:25 1026 30.3 855 25.25 -9.4 15.1 89 -10.9 12.4
19:30 1026 30.3 855 25.25 -9.2 15.4 89 -10.7 12.7
19:35 1026 30.3 855 25.25 -8.9 15.9 89 -10.4 13.2
19:40 1025 30.27 855 25.25 -8.6 16.6 87 -10.3 13.5
19:45 1025 30.27 855 25.25 -8.6 16.5 88 -10.2 13.7
19:50 1025 30.27 855 25.25 -8.3 17.1 87 -10 13.9
19:55 1025 30.27 855 25.25 -8.5 16.8 87 -10.3 13.5
20:00 1025 30.27 855 25.25 -8.8 16.1 89 -10.3 13.4
20:05 1025 30.27 855 25.25 -8.9 16.1 88 -10.5 13.2
20:10 1025 30.27 855 25.25 -9.2 15.4 92 -10.2 13.6
20:15 1025 30.27 855 25.25 -9 15.7 87 -10.8 12.5
20:20 1025 30.27 855 25.25 -9.3 15.2 84 -11.6 11.2
20:25 1025 30.27 854 25.22 -9.9 14.1 86 -11.9 10.6
20:30 1025 30.27 854 25.22 -10.2 13.7 88 -11.9 10.6
20:35 1025 30.27 855 25.25 -10 14.1 91 -11.1 12
20:40 1025 30.27 855 25.25 -9.5 14.9 88 -11.1 12.1
20:45 1025 30.27 855 25.25 -9.5 15 88 -11.2 11.9
20:50 1025 30.27 855 25.25 -9.4 15.1 86 -11.3 11.7
20:55 1026 30.3 855 25.25 -9.3 15.3 86 -11.2 11.8
21:00 1026 30.3 855 25.25 -9.1 15.7 84 -11.3 11.7
21:05 1026 30.3 855 25.25 -9.1 15.6 83 -11.5 11.4
21:10 1026 30.3 855 25.25 -9.2 15.5 84 -11.4 11.5
21:15 1026 30.3 855 25.25 -9.4 15.2 84 -11.5 11.3
21:20 1026 30.3 855 25.25 -9.7 14.5 85 -11.9 10.7
21:25 1026 30.3 855 25.25 -10.2 13.7 88 -11.8 10.8
21:30 1026 30.3 855 25.25 -10 14 91 -11.2 11.9
21:35 1026 30.3 855 25.25 -9.7 14.6 92 -10.7 12.7
21:40 1026 30.3 855 25.25 -9.3 15.3 92 -10.3 13.4
21:45 1026 30.3 855 25.25 -8.9 15.9 90 -10.3 13.5
21:50 1026 30.3 855 25.25 -9.3 15.3 91 -10.6 13
21:55 1026 30.3 855 25.25 -9.1 15.6 92 -10.2 13.6
22:00 1026 30.3 855 25.25 -8.9 15.9 91 -10.1 13.8
22:05 1026 30.3 855 25.25 -8.8 16.1 92 -9.9 14.3
22:10 1026 30.3 855 25.25 -8.8 16.3 93 -9.7 14.6
22:15 1025 30.27 855 25.25 -8.4 16.8 92 -9.5 14.8
22:20 1025 30.27 855 25.25 -8.5 16.8 91 -9.7 14.6
22:25 1025 30.27 855 25.25 -9 15.8 92 -10.1 13.8
22:30 1025 30.27 855 25.25 -9.1 15.6 94 -9.9 14.1
22:35 1025 30.27 855 25.25 -8.8 16.2 93 -9.7 14.6
22:40 1025 30.27 855 25.25 -8.8 16.1 91 -10.1 13.9
22:45 1025 30.27 855 25.25 -8.8 16.1 90 -10.2 13.6
22:50 1026 30.3 855 25.25 -9 15.8 92 -10.1 13.8
22:55 1026 30.3 855 25.25 -8.7 16.3 91 -10 14
23:00 1025 30.27 855 25.25 -8.9 16 93 -9.9 14.3
23:05 1025 30.27 855 25.25 -8.5 16.7 93 -9.5 14.9
23:10 1025 30.27 855 25.25 -8.3 17.1 89 -9.8 14.4
23:15 1026 30.3 855 25.25 -8.4 17 91 -9.6 14.8
23:20 1026 30.3 855 25.25 -8 17.7 87 -9.7 14.5
23:25 1026 30.3 855 25.25 -8.6 16.5 91 -9.8 14.4
23:30 1026 30.3 855 25.25 -9 15.8 88 -10.6 12.9
23:35 1026 30.3 855 25.25 -9.9 14.3 90 -11.2 11.9
23:40 1026 30.3 855 25.25 -9.6 14.7 88 -11.3 11.7
23:45 1025 30.27 855 25.25 -10 14 88 -11.6 11
23:50 1026 30.3 855 25.25 -10.1 13.9 94 -10.8 12.5
23:55 1025 30.27 855 25.25 -9.2 15.4 95 -9.9 14.1
24:00 1025 30.27 855 25.25 -8.7 16.4 93 -9.6 14.7